sensor_id;sensor_type;location;lat;lon;timestamp;P1;durP1;ratioP1;P2;durP2;ratioP2
21804;SDS011;11064;47.102;15.452;2023-01-23T05:02:39;5.75;;;3.78;;
21804;SDS011;11064;47.102;15.452;2023-01-23T05:05:05;5.68;;;3.72;;
21804;SDS011;11064;47.102;15.452;2023-01-23T05:07:31;4.95;;;3.60;;
21804;SDS011;11064;47.102;15.452;2023-01-23T05:09:57;5.60;;;3.88;;
21804;SDS011;11064;47.102;15.452;2023-01-23T05:12:23;5.20;;;3.75;;
21804;SDS011;11064;47.102;15.452;2023-01-23T05:14:49;6.25;;;3.58;;
21804;SDS011;11064;47.102;15.452;2023-01-23T05:17:15;5.80;;;3.90;;
21804;SDS011;11064;47.102;15.452;2023-01-23T05:19:41;4.95;;;3.40;;
21804;SDS011;11064;47.102;15.452;2023-01-23T05:22:06;4.97;;;3.60;;
21804;SDS011;11064;47.102;15.452;2023-01-23T05:24:32;5.43;;;3.45;;
21804;SDS011;11064;47.102;15.452;2023-01-23T05:26:58;4.60;;;3.70;;
21804;SDS011;11064;47.102;15.452;2023-01-23T05:29:24;4.68;;;3.50;;
21804;SDS011;11064;47.102;15.452;2023-01-23T05:31:50;6.88;;;3.95;;
21804;SDS011;11064;47.102;15.452;2023-01-23T05:34:15;6.32;;;4.00;;
21804;SDS011;11064;47.102;15.452;2023-01-23T05:36:41;6.10;;;4.25;;
21804;SDS011;11064;47.102;15.452;2023-01-23T05:39:07;5.75;;;3.97;;
21804;SDS011;11064;47.102;15.452;2023-01-23T05:41:33;6.78;;;4.05;;
21804;SDS011;11064;47.102;15.452;2023-01-23T05:43:59;5.95;;;3.45;;
21804;SDS011;11064;47.102;15.452;2023-01-23T05:46:25;5.95;;;4.15;;
21804;SDS011;11064;47.102;15.452;2023-01-23T05:48:50;6.45;;;3.80;;
21804;SDS011;11064;47.102;15.452;2023-01-23T05:51:17;6.03;;;4.03;;
21804;SDS011;11064;47.102;15.452;2023-01-23T05:53:43;7.00;;;4.15;;
21804;SDS011;11064;47.102;15.452;2023-01-23T05:56:10;8.23;;;3.60;;
21804;SDS011;11064;47.102;15.452;2023-01-23T05:58:36;5.50;;;3.95;;
21804;SDS011;11064;47.102;15.452;2023-01-23T06:01:02;6.10;;;3.90;;
21804;SDS011;11064;47.102;15.452;2023-01-23T06:03:28;6.22;;;4.32;;
21804;SDS011;11064;47.102;15.452;2023-01-23T06:05:54;6.18;;;3.85;;
21804;SDS011;11064;47.102;15.452;2023-01-23T06:08:20;4.40;;;3.55;;
21804;SDS011;11064;47.102;15.452;2023-01-23T06:10:46;5.15;;;3.35;;
21804;SDS011;11064;47.102;15.452;2023-01-23T06:13:12;4.68;;;3.15;;
21804;SDS011;11064;47.102;15.452;2023-01-23T06:15:38;5.20;;;3.20;;
21804;SDS011;11064;47.102;15.452;2023-01-23T06:18:03;5.07;;;2.85;;
21804;SDS011;11064;47.102;15.452;2023-01-23T06:20:29;5.43;;;2.70;;
21804;SDS011;11064;47.102;15.452;2023-01-23T06:22:55;5.13;;;2.97;;
21804;SDS011;11064;47.102;15.452;2023-01-23T06:25:21;3.78;;;2.80;;
21804;SDS011;11064;47.102;15.452;2023-01-23T06:27:47;5.00;;;2.80;;
21804;SDS011;11064;47.102;15.452;2023-01-23T06:30:13;3.03;;;2.35;;
21804;SDS011;11064;47.102;15.452;2023-01-23T06:32:39;3.63;;;2.92;;
21804;SDS011;11064;47.102;15.452;2023-01-23T06:35:05;4.93;;;2.85;;
21804;SDS011;11064;47.102;15.452;2023-01-23T06:37:31;5.03;;;2.90;;
21804;SDS011;11064;47.102;15.452;2023-01-23T06:39:57;6.63;;;3.05;;
21804;SDS011;11064;47.102;15.452;2023-01-23T06:42:23;4.63;;;2.90;;
21804;SDS011;11064;47.102;15.452;2023-01-23T06:44:49;4.13;;;3.00;;
21804;SDS011;11064;47.102;15.452;2023-01-23T06:47:14;3.63;;;2.45;;
21804;SDS011;11064;47.102;15.452;2023-01-23T06:49:40;5.47;;;2.65;;
21804;SDS011;11064;47.102;15.452;2023-01-23T06:52:06;5.60;;;2.53;;
21804;SDS011;11064;47.102;15.452;2023-01-23T06:54:32;4.97;;;2.25;;
21804;SDS011;11064;47.102;15.452;2023-01-23T06:56:58;2.92;;;2.25;;
21804;SDS011;11064;47.102;15.452;2023-01-23T06:59:24;3.42;;;2.58;;
21804;SDS011;11064;47.102;15.452;2023-01-23T07:01:49;2.92;;;2.40;;
21804;SDS011;11064;47.102;15.452;2023-01-23T07:04:15;3.42;;;2.38;;
21804;SDS011;11064;47.102;15.452;2023-01-23T07:06:41;2.53;;;2.28;;
21804;SDS011;11064;47.102;15.452;2023-01-23T07:09:07;2.67;;;2.22;;
21804;SDS011;11064;47.102;15.452;2023-01-23T07:11:33;6.90;;;2.30;;
21804;SDS011;11064;47.102;15.452;2023-01-23T07:14:01;3.15;;;2.30;;
21804;SDS011;11064;47.102;15.452;2023-01-23T07:16:26;3.08;;;1.92;;
21804;SDS011;11064;47.102;15.452;2023-01-23T07:18:52;4.88;;;2.40;;
21804;SDS011;11064;47.102;15.452;2023-01-23T07:21:18;2.92;;;2.00;;
21804;SDS011;11064;47.102;15.452;2023-01-23T07:23:44;2.95;;;1.90;;
21804;SDS011;11064;47.102;15.452;2023-01-23T07:26:10;3.60;;;2.05;;
21804;SDS011;11064;47.102;15.452;2023-01-23T07:28:36;4.30;;;2.00;;
21804;SDS011;11064;47.102;15.452;2023-01-23T07:31:02;3.03;;;1.92;;
21804;SDS011;11064;47.102;15.452;2023-01-23T07:33:29;2.72;;;1.90;;
21804;SDS011;11064;47.102;15.452;2023-01-23T07:35:55;2.78;;;1.70;;
21804;SDS011;11064;47.102;15.452;2023-01-23T07:38:21;2.20;;;1.67;;
21804;SDS011;11064;47.102;15.452;2023-01-23T07:40:50;2.25;;;1.80;;
21804;SDS011;11064;47.102;15.452;2023-01-23T07:43:17;3.58;;;1.80;;
21804;SDS011;11064;47.102;15.452;2023-01-23T07:45:43;4.80;;;1.80;;
21804;SDS011;11064;47.102;15.452;2023-01-23T07:48:10;2.03;;;1.70;;
21804;SDS011;11064;47.102;15.452;2023-01-23T07:50:35;3.30;;;1.80;;
21804;SDS011;11064;47.102;15.452;2023-01-23T07:53:02;2.83;;;1.88;;
21804;SDS011;11064;47.102;15.452;2023-01-23T07:55:29;3.40;;;1.70;;
21804;SDS011;11064;47.102;15.452;2023-01-23T07:57:55;3.63;;;1.58;;
21804;SDS011;11064;47.102;15.452;2023-01-23T08:00:21;2.60;;;1.70;;
21804;SDS011;11064;47.102;15.452;2023-01-23T08:02:47;2.08;;;1.63;;
21804;SDS011;11064;47.102;15.452;2023-01-23T08:05:13;3.63;;;1.63;;
21804;SDS011;11064;47.102;15.452;2023-01-23T08:07:39;2.08;;;1.60;;
21804;SDS011;11064;47.102;15.452;2023-01-23T08:10:05;3.08;;;1.65;;
21804;SDS011;11064;47.102;15.452;2023-01-23T08:12:33;3.63;;;1.73;;
21804;SDS011;11064;47.102;15.452;2023-01-23T08:14:59;4.68;;;2.92;;
21804;SDS011;11064;47.102;15.452;2023-01-23T08:17:25;6.32;;;2.15;;
21804;SDS011;11064;47.102;15.452;2023-01-23T08:19:51;2.45;;;1.60;;
21804;SDS011;11064;47.102;15.452;2023-01-23T08:22:16;3.30;;;1.70;;
21804;SDS011;11064;47.102;15.452;2023-01-23T08:24:42;2.47;;;1.70;;
21804;SDS011;11064;47.102;15.452;2023-01-23T08:27:08;1.80;;;1.67;;
21804;SDS011;11064;47.102;15.452;2023-01-23T08:29:34;2.00;;;1.50;;
21804;SDS011;11064;47.102;15.452;2023-01-23T08:32:00;4.22;;;2.30;;
21804;SDS011;11064;47.102;15.452;2023-01-23T08:34:26;2.47;;;2.05;;
21804;SDS011;11064;47.102;15.452;2023-01-23T08:36:51;3.67;;;2.00;;
21804;SDS011;11064;47.102;15.452;2023-01-23T08:39:18;4.45;;;2.00;;
21804;SDS011;11064;47.102;15.452;2023-01-23T08:41:44;3.47;;;2.30;;
21804;SDS011;11064;47.102;15.452;2023-01-23T08:44:10;4.15;;;2.33;;
21804;SDS011;11064;47.102;15.452;2023-01-23T08:46:37;3.78;;;2.30;;
21804;SDS011;11064;47.102;15.452;2023-01-23T08:49:03;2.90;;;2.10;;
21804;SDS011;11064;47.102;15.452;2023-01-23T08:51:29;5.90;;;2.70;;
21804;SDS011;11064;47.102;15.452;2023-01-23T08:53:55;6.95;;;2.83;;
21804;SDS011;11064;47.102;15.452;2023-01-23T08:56:22;4.32;;;2.90;;
21804;SDS011;11064;47.102;15.452;2023-01-23T08:58:48;2.95;;;2.20;;
21804;SDS011;11064;47.102;15.452;2023-01-23T09:01:15;3.10;;;2.38;;
21804;SDS011;11064;47.102;15.452;2023-01-23T09:03:43;3.42;;;2.22;;
21804;SDS011;11064;47.102;15.452;2023-01-23T09:06:10;3.50;;;2.38;;
21804;SDS011;11064;47.102;15.452;2023-01-23T09:08:37;3.38;;;2.00;;
21804;SDS011;11064;47.102;15.452;2023-01-23T09:11:03;2.92;;;2.17;;
21804;SDS011;11064;47.102;15.452;2023-01-23T09:13:30;3.78;;;2.00;;
21804;SDS011;11064;47.102;15.452;2023-01-23T09:15:57;2.97;;;2.13;;
21804;SDS011;11064;47.102;15.452;2023-01-23T09:18:22;2.65;;;2.20;;
21804;SDS011;11064;47.102;15.452;2023-01-23T09:20:52;3.50;;;1.92;;
21804;SDS011;11064;47.102;15.452;2023-01-23T09:23:19;2.63;;;2.33;;
21804;SDS011;11064;47.102;15.452;2023-01-23T09:25:45;2.95;;;2.08;;
21804;SDS011;11064;47.102;15.452;2023-01-23T09:28:11;4.50;;;2.53;;
21804;SDS011;11064;47.102;15.452;2023-01-23T09:30:37;3.47;;;2.40;;
21804;SDS011;11064;47.102;15.452;2023-01-23T09:33:03;2.88;;;2.58;;
21804;SDS011;11064;47.102;15.452;2023-01-23T09:35:29;3.80;;;2.67;;
21804;SDS011;11064;47.102;15.452;2023-01-23T09:37:55;3.83;;;2.67;;
21804;SDS011;11064;47.102;15.452;2023-01-23T09:40:23;4.88;;;3.30;;
21804;SDS011;11064;47.102;15.452;2023-01-23T09:42:56;4.70;;;2.85;;
21804;SDS011;11064;47.102;15.452;2023-01-23T09:45:26;3.95;;;2.80;;
21804;SDS011;11064;47.102;15.452;2023-01-23T09:47:55;3.03;;;2.50;;
21804;SDS011;11064;47.102;15.452;2023-01-23T09:50:32;4.72;;;3.15;;
21804;SDS011;11064;47.102;15.452;2023-01-23T09:55:55;5.57;;;3.40;;
21804;SDS011;11064;47.102;15.452;2023-01-23T09:58:42;5.82;;;3.70;;
21804;SDS011;11064;47.102;15.452;2023-01-23T10:01:23;4.38;;;3.38;;
21804;SDS011;11064;47.102;15.452;2023-01-23T10:03:53;5.70;;;4.25;;
21804;SDS011;11064;47.102;15.452;2023-01-23T10:17:24;10.60;;;5.35;;
21804;SDS011;11064;47.102;15.452;2023-01-23T10:25:02;8.85;;;5.65;;
21804;SDS011;11064;47.102;15.452;2023-01-23T10:27:42;9.18;;;6.32;;
21804;SDS011;11064;47.102;15.452;2023-01-23T10:35:24;10.40;;;5.47;;
21804;SDS011;11064;47.102;15.452;2023-01-23T10:38:22;8.38;;;6.28;;
21804;SDS011;11064;47.102;15.452;2023-01-23T10:40:58;9.52;;;5.70;;
21804;SDS011;11064;47.102;15.452;2023-01-23T10:43:43;8.48;;;5.35;;
21804;SDS011;11064;47.102;15.452;2023-01-23T10:46:30;10.05;;;5.63;;
21804;SDS011;11064;47.102;15.452;2023-01-23T10:49:00;9.05;;;6.00;;
21804;SDS011;11064;47.102;15.452;2023-01-23T10:56:58;8.57;;;5.85;;
21804;SDS011;11064;47.102;15.452;2023-01-23T11:00:00;8.60;;;5.72;;
21804;SDS011;11064;47.102;15.452;2023-01-23T11:02:30;8.60;;;6.18;;
21804;SDS011;11064;47.102;15.452;2023-01-23T11:05:02;7.57;;;5.32;;
21804;SDS011;11064;47.102;15.452;2023-01-23T11:07:52;7.85;;;5.68;;
21804;SDS011;11064;47.102;15.452;2023-01-23T11:10:20;8.60;;;6.10;;
21804;SDS011;11064;47.102;15.452;2023-01-23T11:12:47;9.57;;;6.18;;
21804;SDS011;11064;47.102;15.452;2023-01-23T11:17:50;10.05;;;6.57;;
21804;SDS011;11064;47.102;15.452;2023-01-23T11:20:25;11.23;;;6.38;;
21804;SDS011;11064;47.102;15.452;2023-01-23T11:23:01;9.00;;;6.10;;
21804;SDS011;11064;47.102;15.452;2023-01-23T11:25:30;14.93;;;7.05;;
21804;SDS011;11064;47.102;15.452;2023-01-23T11:27:59;10.27;;;7.10;;
21804;SDS011;11064;47.102;15.452;2023-01-23T11:33:21;9.05;;;6.38;;
21804;SDS011;11064;47.102;15.452;2023-01-23T11:41:14;15.23;;;9.25;;
21804;SDS011;11064;47.102;15.452;2023-01-23T11:43:39;15.32;;;10.60;;
21804;SDS011;11064;47.102;15.452;2023-01-23T12:07:48;12.43;;;7.40;;
21804;SDS011;11064;47.102;15.452;2023-01-23T12:10:26;12.73;;;7.40;;
21804;SDS011;11064;47.102;15.452;2023-01-23T12:18:46;13.50;;;6.90;;
21804;SDS011;11064;47.102;15.452;2023-01-23T12:27:00;12.88;;;7.53;;
21804;SDS011;11064;47.102;15.452;2023-01-23T12:38:30;11.93;;;7.30;;
21804;SDS011;11064;47.102;15.452;2023-01-23T12:41:14;10.45;;;6.82;;
21804;SDS011;11064;47.102;15.452;2023-01-23T12:49:50;11.25;;;7.35;;
21804;SDS011;11064;47.102;15.452;2023-01-23T12:55:15;16.45;;;8.80;;
21804;SDS011;11064;47.102;15.452;2023-01-23T12:57:47;14.02;;;8.25;;
21804;SDS011;11064;47.102;15.452;2023-01-23T13:00:30;13.02;;;8.65;;
21804;SDS011;11064;47.102;15.452;2023-01-23T13:03:12;30.38;;;9.77;;
21804;SDS011;11064;47.102;15.452;2023-01-23T13:11:09;13.90;;;8.75;;
21804;SDS011;11064;47.102;15.452;2023-01-23T13:14:19;14.82;;;8.88;;
21804;SDS011;11064;47.102;15.452;2023-01-23T13:16:47;21.48;;;11.70;;
21804;SDS011;11064;47.102;15.452;2023-01-23T13:19:19;21.27;;;12.98;;
21804;SDS011;11064;47.102;15.452;2023-01-23T13:24:48;18.75;;;12.45;;
21804;SDS011;11064;47.102;15.452;2023-01-23T13:32:47;23.45;;;13.80;;
21804;SDS011;11064;47.102;15.452;2023-01-23T13:52:20;23.38;;;15.27;;
21804;SDS011;11064;47.102;15.452;2023-01-23T13:55:41;27.30;;;15.55;;
21804;SDS011;11064;47.102;15.452;2023-01-23T13:58:23;24.58;;;15.02;;
21804;SDS011;11064;47.102;15.452;2023-01-23T14:03:51;25.73;;;15.48;;
21804;SDS011;11064;47.102;15.452;2023-01-23T14:06:41;22.58;;;13.70;;
21804;SDS011;11064;47.102;15.452;2023-01-23T14:12:06;22.13;;;14.05;;
21804;SDS011;11064;47.102;15.452;2023-01-23T14:14:33;17.92;;;12.02;;
21804;SDS011;11064;47.102;15.452;2023-01-23T14:17:22;16.40;;;9.60;;
21804;SDS011;11064;47.102;15.452;2023-01-23T14:19:56;17.90;;;9.60;;
21804;SDS011;11064;47.102;15.452;2023-01-23T14:22:30;20.60;;;10.55;;
21804;SDS011;11064;47.102;15.452;2023-01-23T14:24:56;15.63;;;8.98;;
21804;SDS011;11064;47.102;15.452;2023-01-23T14:30:13;13.02;;;8.70;;
21804;SDS011;11064;47.102;15.452;2023-01-23T14:32:42;13.77;;;8.93;;
21804;SDS011;11064;47.102;15.452;2023-01-23T14:35:22;13.73;;;8.35;;
21804;SDS011;11064;47.102;15.452;2023-01-23T14:37:52;13.90;;;8.85;;
21804;SDS011;11064;47.102;15.452;2023-01-23T14:40:21;14.88;;;8.23;;
21804;SDS011;11064;47.102;15.452;2023-01-23T14:42:52;11.30;;;7.72;;
21804;SDS011;11064;47.102;15.452;2023-01-23T14:45:23;11.82;;;7.88;;
21804;SDS011;11064;47.102;15.452;2023-01-23T14:47:52;11.98;;;8.57;;
21804;SDS011;11064;47.102;15.452;2023-01-23T14:50:19;12.80;;;8.05;;
21804;SDS011;11064;47.102;15.452;2023-01-23T14:52:58;12.75;;;8.38;;
21804;SDS011;11064;47.102;15.452;2023-01-23T14:55:26;13.25;;;8.32;;
21804;SDS011;11064;47.102;15.452;2023-01-23T14:57:53;12.65;;;8.27;;
21804;SDS011;11064;47.102;15.452;2023-01-23T15:00:22;12.00;;;7.97;;
21804;SDS011;11064;47.102;15.452;2023-01-23T15:02:48;12.32;;;8.27;;
21804;SDS011;11064;47.102;15.452;2023-01-23T15:05:23;11.50;;;7.95;;
21804;SDS011;11064;47.102;15.452;2023-01-23T15:13:06;12.63;;;7.63;;
21804;SDS011;11064;47.102;15.452;2023-01-23T15:15:37;12.93;;;7.57;;
21804;SDS011;11064;47.102;15.452;2023-01-23T15:18:21;11.23;;;7.50;;
21804;SDS011;11064;47.102;15.452;2023-01-23T15:21:01;11.95;;;7.50;;
21804;SDS011;11064;47.102;15.452;2023-01-23T15:23:31;12.80;;;7.78;;
21804;SDS011;11064;47.102;15.452;2023-01-23T15:26:10;14.18;;;7.80;;
21804;SDS011;11064;47.102;15.452;2023-01-23T15:28:40;12.38;;;8.20;;
21804;SDS011;11064;47.102;15.452;2023-01-23T15:31:47;12.25;;;8.10;;
21804;SDS011;11064;47.102;15.452;2023-01-23T15:36:44;12.32;;;8.48;;
21804;SDS011;11064;47.102;15.452;2023-01-23T15:39:35;11.65;;;8.27;;
21804;SDS011;11064;47.102;15.452;2023-01-23T15:44:36;15.05;;;9.75;;
21804;SDS011;11064;47.102;15.452;2023-01-23T15:47:03;15.35;;;9.70;;
21804;SDS011;11064;47.102;15.452;2023-01-23T15:49:33;15.98;;;9.82;;
21804;SDS011;11064;47.102;15.452;2023-01-23T15:52:08;16.25;;;10.50;;
21804;SDS011;11064;47.102;15.452;2023-01-23T15:54:52;21.15;;;12.85;;
21804;SDS011;11064;47.102;15.452;2023-01-23T15:57:23;21.88;;;13.27;;
21804;SDS011;11064;47.102;15.452;2023-01-23T15:59:49;21.80;;;13.15;;
21804;SDS011;11064;47.102;15.452;2023-01-23T16:02:19;24.85;;;14.90;;
21804;SDS011;11064;47.102;15.452;2023-01-23T16:04:47;31.92;;;18.38;;
21804;SDS011;11064;47.102;15.452;2023-01-23T16:07:20;27.88;;;17.10;;
21804;SDS011;11064;47.102;15.452;2023-01-23T16:09:54;28.88;;;17.27;;
21804;SDS011;11064;47.102;15.452;2023-01-23T16:12:21;30.50;;;18.02;;
21804;SDS011;11064;47.102;15.452;2023-01-23T16:14:54;38.58;;;19.95;;
21804;SDS011;11064;47.102;15.452;2023-01-23T16:17:20;38.03;;;19.38;;
21804;SDS011;11064;47.102;15.452;2023-01-23T16:19:47;36.65;;;19.08;;
21804;SDS011;11064;47.102;15.452;2023-01-23T16:22:21;27.08;;;17.60;;
21804;SDS011;11064;47.102;15.452;2023-01-23T16:24:50;32.05;;;18.77;;
21804;SDS011;11064;47.102;15.452;2023-01-23T16:27:16;29.58;;;19.15;;
21804;SDS011;11064;47.102;15.452;2023-01-23T16:29:44;30.35;;;18.67;;
21804;SDS011;11064;47.102;15.452;2023-01-23T16:32:10;28.83;;;17.88;;
21804;SDS011;11064;47.102;15.452;2023-01-23T16:34:36;25.95;;;16.98;;
21804;SDS011;11064;47.102;15.452;2023-01-23T16:37:02;28.73;;;18.05;;
21804;SDS011;11064;47.102;15.452;2023-01-23T16:39:29;29.42;;;17.65;;
21804;SDS011;11064;47.102;15.452;2023-01-23T16:41:56;29.15;;;17.35;;
21804;SDS011;11064;47.102;15.452;2023-01-23T16:44:23;27.70;;;17.45;;
21804;SDS011;11064;47.102;15.452;2023-01-23T16:46:51;27.05;;;16.70;;
21804;SDS011;11064;47.102;15.452;2023-01-23T16:49:18;29.17;;;16.48;;
21804;SDS011;11064;47.102;15.452;2023-01-23T16:51:46;29.60;;;17.48;;
21804;SDS011;11064;47.102;15.452;2023-01-23T16:54:22;29.83;;;17.80;;
21804;SDS011;11064;47.102;15.452;2023-01-23T16:56:50;32.25;;;18.50;;
21804;SDS011;11064;47.102;15.452;2023-01-23T16:59:18;90.32;;;22.65;;
21804;SDS011;11064;47.102;15.452;2023-01-23T17:01:49;37.30;;;19.05;;
21804;SDS011;11064;47.102;15.452;2023-01-23T17:04:16;29.23;;;18.70;;
21804;SDS011;11064;47.102;15.452;2023-01-23T17:06:45;31.70;;;18.48;;
21804;SDS011;11064;47.102;15.452;2023-01-23T17:09:12;31.25;;;19.73;;
21804;SDS011;11064;47.102;15.452;2023-01-23T17:11:47;38.30;;;21.45;;
21804;SDS011;11064;47.102;15.452;2023-01-23T17:14:19;32.67;;;20.08;;
21804;SDS011;11064;47.102;15.452;2023-01-23T17:16:49;33.65;;;20.92;;
21804;SDS011;11064;47.102;15.452;2023-01-23T17:19:28;29.65;;;18.65;;
21804;SDS011;11064;47.102;15.452;2023-01-23T17:22:00;31.65;;;19.15;;
21804;SDS011;11064;47.102;15.452;2023-01-23T17:24:28;33.00;;;19.50;;
21804;SDS011;11064;47.102;15.452;2023-01-23T17:26:54;30.27;;;18.25;;
21804;SDS011;11064;47.102;15.452;2023-01-23T17:29:20;30.27;;;18.80;;
21804;SDS011;11064;47.102;15.452;2023-01-23T17:31:47;31.80;;;19.35;;
21804;SDS011;11064;47.102;15.452;2023-01-23T17:34:23;33.20;;;19.55;;
21804;SDS011;11064;47.102;15.452;2023-01-23T17:36:51;30.38;;;18.67;;
21804;SDS011;11064;47.102;15.452;2023-01-23T17:39:19;81.22;;;21.52;;
21804;SDS011;11064;47.102;15.452;2023-01-23T17:41:45;55.58;;;22.90;;
21804;SDS011;11064;47.102;15.452;2023-01-23T17:44:11;36.13;;;21.67;;
21804;SDS011;11064;47.102;15.452;2023-01-23T17:46:37;54.70;;;23.90;;
21804;SDS011;11064;47.102;15.452;2023-01-23T17:49:04;73.85;;;22.05;;
21804;SDS011;11064;47.102;15.452;2023-01-23T17:51:52;38.70;;;20.58;;
21804;SDS011;11064;47.102;15.452;2023-01-23T17:54:20;43.75;;;19.80;;
21804;SDS011;11064;47.102;15.452;2023-01-23T17:56:46;184.43;;;30.30;;
21804;SDS011;11064;47.102;15.452;2023-01-23T17:59:14;261.92;;;27.75;;
21804;SDS011;11064;47.102;15.452;2023-01-23T18:01:40;67.68;;;22.88;;
21804;SDS011;11064;47.102;15.452;2023-01-23T18:04:15;117.60;;;23.35;;
21804;SDS011;11064;47.102;15.452;2023-01-23T18:06:43;43.58;;;20.63;;
21804;SDS011;11064;47.102;15.452;2023-01-23T18:09:10;58.90;;;22.98;;
21804;SDS011;11064;47.102;15.452;2023-01-23T18:11:37;77.40;;;23.20;;
21804;SDS011;11064;47.102;15.452;2023-01-23T18:16:50;42.67;;;19.17;;
21804;SDS011;11064;47.102;15.452;2023-01-23T18:19:19;133.15;;;26.17;;
21804;SDS011;11064;47.102;15.452;2023-01-23T18:21:48;42.65;;;19.75;;
21804;SDS011;11064;47.102;15.452;2023-01-23T18:24:28;111.10;;;30.98;;
21804;SDS011;11064;47.102;15.452;2023-01-23T18:26:58;53.95;;;21.05;;
21804;SDS011;11064;47.102;15.452;2023-01-23T18:32:35;121.53;;;22.98;;
21804;SDS011;11064;47.102;15.452;2023-01-23T18:41:24;35.22;;;18.85;;
21804;SDS011;11064;47.102;15.452;2023-01-23T18:43:54;28.40;;;18.35;;
21804;SDS011;11064;47.102;15.452;2023-01-23T18:46:25;49.70;;;19.77;;
21804;SDS011;11064;47.102;15.452;2023-01-23T18:48:52;32.97;;;20.27;;
21804;SDS011;11064;47.102;15.452;2023-01-23T18:54:16;45.20;;;20.55;;
21804;SDS011;11064;47.102;15.452;2023-01-23T19:02:22;36.42;;;19.90;;
21804;SDS011;11064;47.102;15.452;2023-01-23T19:07:50;49.28;;;24.25;;
21804;SDS011;11064;47.102;15.452;2023-01-23T19:10:23;41.63;;;24.00;;
21804;SDS011;11064;47.102;15.452;2023-01-23T19:15:28;35.40;;;21.70;;
21804;SDS011;11064;47.102;15.452;2023-01-23T19:18:52;59.38;;;22.92;;
21804;SDS011;11064;47.102;15.452;2023-01-23T19:21:12;37.38;;;19.08;;
21804;SDS011;11064;47.102;15.452;2023-01-23T19:26:30;34.28;;;20.05;;
21804;SDS011;11064;47.102;15.452;2023-01-23T19:29:04;31.77;;;19.42;;
21804;SDS011;11064;47.102;15.452;2023-01-23T19:31:33;34.05;;;19.80;;
21804;SDS011;11064;47.102;15.452;2023-01-23T19:34:01;83.35;;;21.75;;
21804;SDS011;11064;47.102;15.452;2023-01-23T19:36:29;88.57;;;21.90;;
21804;SDS011;11064;47.102;15.452;2023-01-23T19:38:57;42.03;;;20.95;;
21804;SDS011;11064;47.102;15.452;2023-01-23T19:44:03;374.80;;;31.05;;
21804;SDS011;11064;47.102;15.452;2023-01-23T19:46:30;244.40;;;27.02;;
21804;SDS011;11064;47.102;15.452;2023-01-23T19:48:57;71.03;;;20.80;;
21804;SDS011;11064;47.102;15.452;2023-01-23T19:51:25;65.85;;;19.70;;
21804;SDS011;11064;47.102;15.452;2023-01-23T19:53:53;193.57;;;24.70;;
21804;SDS011;11064;47.102;15.452;2023-01-23T19:56:19;48.88;;;18.63;;
21804;SDS011;11064;47.102;15.452;2023-01-23T19:58:46;50.97;;;22.63;;
21804;SDS011;11064;47.102;15.452;2023-01-23T20:03:45;90.75;;;21.95;;
21804;SDS011;11064;47.102;15.452;2023-01-23T20:06:15;30.83;;;18.40;;
21804;SDS011;11064;47.102;15.452;2023-01-23T20:08:41;32.63;;;19.50;;
21804;SDS011;11064;47.102;15.452;2023-01-23T20:11:11;37.30;;;20.83;;
21804;SDS011;11064;47.102;15.452;2023-01-23T20:13:37;44.70;;;20.63;;
21804;SDS011;11064;47.102;15.452;2023-01-23T20:16:16;37.70;;;20.55;;
21804;SDS011;11064;47.102;15.452;2023-01-23T20:18:48;53.15;;;19.63;;
21804;SDS011;11064;47.102;15.452;2023-01-23T20:23:42;62.17;;;22.38;;
21804;SDS011;11064;47.102;15.452;2023-01-23T20:26:09;51.08;;;20.48;;
21804;SDS011;11064;47.102;15.452;2023-01-23T20:28:36;101.32;;;23.75;;
21804;SDS011;11064;47.102;15.452;2023-01-23T20:31:06;48.88;;;22.83;;
21804;SDS011;11064;47.102;15.452;2023-01-23T20:33:36;518.47;;;39.30;;
21804;SDS011;11064;47.102;15.452;2023-01-23T20:36:02;183.25;;;25.48;;
21804;SDS011;11064;47.102;15.452;2023-01-23T20:38:30;43.13;;;20.73;;
21804;SDS011;11064;47.102;15.452;2023-01-23T20:41:06;57.67;;;20.83;;
21804;SDS011;11064;47.102;15.452;2023-01-23T20:43:34;34.08;;;20.48;;
21804;SDS011;11064;47.102;15.452;2023-01-23T20:46:02;42.90;;;20.35;;
21804;SDS011;11064;47.102;15.452;2023-01-23T20:48:34;56.75;;;21.00;;
21804;SDS011;11064;47.102;15.452;2023-01-23T20:51:01;35.28;;;19.25;;
21804;SDS011;11064;47.102;15.452;2023-01-23T20:53:27;160.02;;;22.77;;
21804;SDS011;11064;47.102;15.452;2023-01-23T20:56:05;78.45;;;21.50;;
21804;SDS011;11064;47.102;15.452;2023-01-23T20:58:41;68.88;;;22.80;;
21804;SDS011;11064;47.102;15.452;2023-01-23T21:01:32;36.40;;;22.00;;
21804;SDS011;11064;47.102;15.452;2023-01-23T21:04:19;36.53;;;22.25;;
21804;SDS011;11064;47.102;15.452;2023-01-23T21:06:46;33.92;;;20.30;;
21804;SDS011;11064;47.102;15.452;2023-01-23T21:09:12;36.85;;;20.73;;
21804;SDS011;11064;47.102;15.452;2023-01-23T21:11:38;66.90;;;23.58;;
21804;SDS011;11064;47.102;15.452;2023-01-23T21:14:05;37.05;;;21.65;;
21804;SDS011;11064;47.102;15.452;2023-01-23T21:16:31;31.45;;;18.23;;
21804;SDS011;11064;47.102;15.452;2023-01-23T21:18:58;36.80;;;20.05;;
21804;SDS011;11064;47.102;15.452;2023-01-23T21:21:25;86.43;;;22.50;;
21804;SDS011;11064;47.102;15.452;2023-01-23T21:23:51;117.90;;;22.25;;
21804;SDS011;11064;47.102;15.452;2023-01-23T21:26:18;684.63;;;39.53;;
21804;SDS011;11064;47.102;15.452;2023-01-23T21:28:47;876.78;;;49.97;;
21804;SDS011;11064;47.102;15.452;2023-01-23T21:31:16;114.78;;;16.70;;
21804;SDS011;11064;47.102;15.452;2023-01-23T21:36:14;502.38;;;29.60;;
21804;SDS011;11064;47.102;15.452;2023-01-23T21:38:42;33.92;;;10.60;;
21804;SDS011;11064;47.102;15.452;2023-01-23T21:41:09;363.30;;;24.90;;
21804;SDS011;11064;47.102;15.452;2023-01-23T21:43:35;138.82;;;14.48;;
21804;SDS011;11064;47.102;15.452;2023-01-23T21:46:01;903.25;;;52.83;;
21804;SDS011;11064;47.102;15.452;2023-01-23T21:48:28;70.50;;;12.10;;
21804;SDS011;11064;47.102;15.452;2023-01-23T21:51:08;877.40;;;40.17;;
21804;SDS011;11064;47.102;15.452;2023-01-23T21:53:36;361.90;;;22.05;;
21804;SDS011;11064;47.102;15.452;2023-01-23T21:56:03;393.58;;;27.40;;
21804;SDS011;11064;47.102;15.452;2023-01-23T21:58:30;14.90;;;9.90;;
21804;SDS011;11064;47.102;15.452;2023-01-23T22:00:57;28.48;;;10.70;;
21804;SDS011;11064;47.102;15.452;2023-01-23T22:03:43;131.57;;;11.43;;
21804;SDS011;11064;47.102;15.452;2023-01-23T22:06:09;34.55;;;9.80;;
21804;SDS011;11064;47.102;15.452;2023-01-23T22:08:36;278.58;;;19.95;;
21804;SDS011;11064;47.102;15.452;2023-01-23T22:11:03;58.70;;;10.13;;
21804;SDS011;11064;47.102;15.452;2023-01-23T22:13:30;343.17;;;23.45;;
21804;SDS011;11064;47.102;15.452;2023-01-23T22:15:56;12.93;;;6.80;;
21804;SDS011;11064;47.102;15.452;2023-01-23T22:18:23;615.08;;;32.70;;
21804;SDS011;11064;47.102;15.452;2023-01-23T22:20:55;372.88;;;18.98;;
21804;SDS011;11064;47.102;15.452;2023-01-23T22:23:22;19.75;;;6.72;;
21804;SDS011;11064;47.102;15.452;2023-01-23T22:25:49;10.77;;;7.22;;
21804;SDS011;11064;47.102;15.452;2023-01-23T22:28:16;859.92;;;43.92;;
21804;SDS011;11064;47.102;15.452;2023-01-23T22:30:42;1230.95;;;60.28;;
21804;SDS011;11064;47.102;15.452;2023-01-23T22:33:08;13.48;;;7.65;;
21804;SDS011;11064;47.102;15.452;2023-01-23T22:35:37;705.78;;;33.65;;